Business Course(s)

No Course Title No of Days Start Date End Date Fee Content Register
1 COMPETENCY BASED RECRUITMENT 3 Days 01/06/2020 03/06/2020 $ 5,000, Ksh 40,000 View
2 ASSET MANAGEMENT 5 Days 08/06/2020 12/06/2020 $ 1,000, Ksh 80,000 View
3 GENDER DIVERSITY AT THE WORK PLACE 3 Days 08/06/2020 10/06/2020 $ 500, Ksh 40,000 View
4 AUDITING OF DONOR FUNDED PROJECTS 5 Days 08/06/2020 12/06/2020 $ 1,000, Ksh 80,000 View
5 HUMAN RESOURCES DEVELOPMENT AND PERSONNEL MANAGEME 5 Days 08/06/2020 12/06/2020 $ 1,000, Ksh 80,000 View
6 CASH FLOW FORECASTING AND LIQUIDITY RISK MANAGEMEN 5 Days 08/06/2020 12/06/2020 $ 1,000, Ksh 80,000 View
7 PROJECT FINANCIAL ANALYSIS AND MANAGEMENT 5 Days 08/06/2020 12/06/2020 $ 1,000, Ksh 80,000 View
8 CONCEPTS OF CORPORATE GOVERNANCE, BUSINESS ETHICS 5 Days 08/06/2020 12/06/2020 $ 1,000, Ksh 80,000 View
9 PROCUREMENT AND SUPPLY CHAIN MANAGEMENT 5 Days 08/06/2020 12/06/2020 $ 1,000, Ksh 80,000 View
10 RECORDS MANAGEMENT 10 Days 08/06/2020 19/06/2020 $ 2,000, Ksh 160,000 View
11 ADVANCED PURCHASING AND COST SAVING TECHNIQUES 5 Days 08/06/2020 12/06/2020 $ 1,000, Ksh 80,000 View
12 SHIPPING AND LOGISTICS 5 Days 08/06/2020 12/06/2020 $ 1,000, Ksh 80,000 View
13 CONTRACT MANAGEMENT IN OIL & GAS 5 Days 08/06/2020 12/06/2020 $ 1,000, Ksh 80,000 View
14 BEST PRACTICES IN MANAGING INVENTORY & STOCK CONTR 5 Days 08/06/2020 12/06/2020 $ 1,000, Ksh 80,000 View
15 EFFECTIVE WAREHOUSE & STORES MANAGEMENT 5 Days 08/06/2020 12/06/2020 $ 1,000, Ksh 80,000 View
16 PROFESSIONAL SKILLS ENHANCEMENT FOR ADMINISTRATORS 10 Days 08/06/2020 17/06/2020 $ 2,000, Ksh 160,000 View
17 ESSENTIAL INTERVIEWING SKILLS 3 Days 08/06/2020 10/06/2020 $ 500, Ksh 40,000 View
18 MICROSOFT EXCEL FOR HUMAN RESOURSE PROFESSIONAL 3 Days 08/06/2020 10/06/2020 $ 500, Ksh 40,000 View
19 LEADING FOR ORGANIZATIONAL IMPACT 5 Days 08/06/2020 12/06/2020 $ 1,000, Ksh 80,000 View
20 INTERPERSONAL SKILLS FOR THE HR PROFFESSIONAL 5 Days 08/06/2020 12/06/2020 $ 1,000, Ksh 80,000 View
21 BASIC HUMAN RESOURCE MANAGEMENT 5 Days 08/06/2020 12/06/2020 $ 1,000, Ksh 80,000 View
22 INTERNATIONAL FINANCIAL REPORTING STANDARDS 5 Days 08/06/2020 12/06/2020 $ 1,000, Ksh 80,000 View
23 FINANCIAL MARKETS AND INSTITUTIONS COURSE 5 Days 08/06/2020 12/06/2020 $ 1,000, Ksh 80,000 View
24 FINANCIAL SKILLS DEVELOPMENT 5 Days 08/06/2020 12/06/2020 $ 1,000, Ksh 80,000 View
25 INTERNATIONAL PUBLIC SECTOR ACCOUNTING STANDARD 5 Days 08/06/2020 12/06/2020 $ 1,000, Ksh 80,000 View
26 EFFECTIVE DATA ANALYSIS TECHNIQUES: FOR POSITIVE B 5 Days 08/06/2020 12/06/2020 $ 1,000, Ksh 80,000 View
27 FINANCIAL MANAGEMENT USING PASTEL 5 Days 08/06/2020 12/06/2020 $ 1,000, Ksh 80,000 View
28 EFFECTIVE DATA ANALYSIS TECHNIQUES: FOR POSITIVE B 5 Days 08/06/2020 12/06/2020 $ 1,000, Ksh 80,000 View
29 FORENSIC ACCOUNTING IN THE PUBLIC SECTOR 5 Days 08/06/2020 12/06/2020 $ 1,000, Ksh 80,000 View
30 CORPORATE AND EMPLOYEE BEST PRACTICES 5 Days 08/06/2020 12/06/2020 $ 1,000, Ksh 80,000 View
31 ENTERPRISE RISK MANAGEMENT 5 Days 08/06/2020 12/06/2020 $ 1,000, Ksh 80,000 View
32 BASICS OF FINANCIAL MODELLING USING MS EXCEL 10 Days 08/06/2020 19/06/2020 $ 2,000, Ksh 160,000 View
33 CORPORATE AND EMPLOYEE BEST PRACTICES 5 Days 08/06/2020 12/06/2020 $ 1,000, Ksh 80,000 View
34 CUSTOMER EXPERIENCE MANAGEMENT STRATEGIES 5 Days 08/06/2020 12/06/2020 $ 1,000, Ksh 80,000 View
35 PERFORMANCE AUDITING 5 Days 08/06/2020 12/06/2020 $ 1,000, Ksh 80,000 View
36 GENDER DIVERSITY AT THE WORK PLACE 3 Days 08/06/2020 10/06/2020 $ 500, Ksh 40,000 View
37 PERSPECTIVES ON COST ACCOUNTING FOR PUBLIC SECTOR 5 Days 08/06/2020 12/06/2020 $ 1,000, Ksh 80,000 View
38 CUSTOMER RELATIONSHIP MANAGEMENT (CRM) BEST PRACTI 5 Days 08/06/2020 12/06/2020 $ 1,000, Ksh 80,000 View
39 THE ART OF HUMAN RESOURCE MANAGEMENT 5 Days 08/06/2020 12/06/2020 $ 1,000, Ksh 80,000 View
40 GRANT MANAGEMENT USING SUN ACCOUNTING SYSTEM 10 Days 08/06/2020 19/06/2020 $ 2,000, Ksh 160,000 View
41 CUSTOMER ACQUISITION & RETENTION STRATEGIES 5 Days 08/06/2020 12/06/2020 $ 1,000, Ksh 80,000 View
42 PREPARATION AND INTERPRETATION OF FINANCIAL STATEM 5 Days 08/06/2020 12/06/2020 $ 1,000, Ksh 80,000 View
43 BUDGET EXECUTION AND MANAGING FISCAL SPACE 5 Days 08/06/2020 12/06/2020 $ 1,000, Ksh 80,000 View
44 CORPORATE AND EMPLOYEE BEST PRACTICES 5 Days 08/06/2020 12/06/2020 $ 1,000, Ksh 80,000 View
45 STRATEGIC VISION AND BUSINESS RISK MANAGEMENT STAT 10 Days 08/06/2020 19/06/2020 $ 2,000, Ksh 160,000 View
46 ADVANCED FINANCIAL MANAGEMENT 5 Days 08/06/2020 12/06/2020 $ 1,000, Ksh 80,000 View
47 COMPETENCY BASED RECRUITMENT 3 Days 08/06/2020 12/06/2020 $ 5,000, Ksh 40,000 View
48 EMPLOYEE RELATIONS 3 Days 08/06/2020 10/06/2020 $ 500, Ksh 40,000 View
49 ASSET MANAGEMENT 5 Days 06/07/2020 10/07/2020 $ 1,000, Ksh 80,000 View
50 GENDER DIVERSITY AT THE WORK PLACE 3 Days 06/07/2020 08/07/2020 $ 500, Ksh 40,000 View
51 AUDITING OF DONOR FUNDED PROJECTS 5 Days 06/07/2020 10/07/2020 $ 1,000, Ksh 80,000 View
52 HUMAN RESOURCES DEVELOPMENT AND PERSONNEL MANAGEME 5 Days 06/07/2020 10/07/2020 $ 1,000, Ksh 80,000 View
53 CASH FLOW FORECASTING AND LIQUIDITY RISK MANAGEMEN 5 Days 06/07/2020 10/07/2020 $ 1,000, Ksh 80,000 View
54 PROJECT FINANCIAL ANALYSIS AND MANAGEMENT 5 Days 06/07/2020 10/07/2020 $ 1,000, Ksh 80,000 View
55 CONCEPTS OF CORPORATE GOVERNANCE, BUSINESS ETHICS 5 Days 06/07/2020 10/07/2020 $ 1,000, Ksh 80,000 View
56 PROCUREMENT AND SUPPLY CHAIN MANAGEMENT 5 Days 06/07/2020 10/07/2020 $ 1,000, Ksh 80,000 View
57 RECORDS MANAGEMENT 10 Days 06/07/2020 17/07/2020 $ 2,000, Ksh 160,000 View
58 ADVANCED PURCHASING AND COST SAVING TECHNIQUES 5 Days 06/07/2020 10/07/2020 $ 1,000, Ksh 80,000 View
59 SHIPPING AND LOGISTICS 5 Days 06/07/2020 10/07/2020 $ 1,000, Ksh 80,000 View
60 CONTRACT MANAGEMENT IN OIL & GAS 5 Days 06/07/2020 10/07/2020 $ 1,000, Ksh 80,000 View
61 BEST PRACTICES IN MANAGING INVENTORY & STOCK CONTR 5 Days 06/07/2020 10/07/2020 $ 1,000, Ksh 80,000 View
62 EFFECTIVE WAREHOUSE & STORES MANAGEMENT 5 Days 06/07/2020 10/07/2020 $ 1,000, Ksh 80,000 View
63 PROFESSIONAL SKILLS ENHANCEMENT FOR ADMINISTRATORS 10 Days 06/07/2020 15/07/2020 $ 2,000, Ksh 160,000 View
64 ESSENTIAL INTERVIEWING SKILLS 3 Days 06/07/2020 08/07/2020 $ 500, Ksh 40,000 View
65 MICROSOFT EXCEL FOR HUMAN RESOURSE PROFESSIONAL 3 Days 06/07/2020 08/07/2020 $ 500, Ksh 40,000 View
66 LEADING FOR ORGANIZATIONAL IMPACT 5 Days 06/07/2020 10/07/2020 $ 1,000, Ksh 80,000 View
67 INTERPERSONAL SKILLS FOR THE HR PROFFESSIONAL 5 Days 06/07/2020 10/07/2020 $ 1,000, Ksh 80,000 View
68 BASIC HUMAN RESOURCE MANAGEMENT 5 Days 06/07/2020 10/07/2020 $ 1,000, Ksh 80,000 View
69 INTERNATIONAL FINANCIAL REPORTING STANDARDS 5 Days 06/07/2020 10/07/2020 $ 1,000, Ksh 80,000 View
70 FINANCIAL MARKETS AND INSTITUTIONS COURSE 5 Days 06/07/2020 10/07/2020 $ 1,000, Ksh 80,000 View
71 FINANCIAL SKILLS DEVELOPMENT 5 Days 06/07/2020 10/07/2020 $ 1,000, Ksh 80,000 View
72 INTERNATIONAL PUBLIC SECTOR ACCOUNTING STANDARD 5 Days 06/07/2020 10/07/2020 $ 1,000, Ksh 80,000 View
73 FINANCIAL MANAGEMENT USING PASTEL 5 Days 06/07/2020 10/07/2020 $ 1,000, Ksh 80,000 View
74 FORENSIC ACCOUNTING IN THE PUBLIC SECTOR 5 Days 06/07/2020 10/07/2020 $ 1,000, Ksh 80,000 View
75 CORPORATE AND EMPLOYEE BEST PRACTICES 5 Days 06/07/2020 10/07/2020 $ 1,000, Ksh 80,000 View
76 ENTERPRISE RISK MANAGEMENT 5 Days 06/07/2020 10/07/2020 $ 1,000, Ksh 80,000 View
77 COMPETENCY BASED RECRUITMENT 3 Days 06/07/2020 08/07/2020 $ 5,000, Ksh 40,000 View
78 BASICS OF FINANCIAL MODELLING USING MS EXCEL 10 Days 06/07/2020 17/07/2020 $ 2,000, Ksh 160,000 View
79 CORPORATE AND EMPLOYEE BEST PRACTICES 5 Days 06/07/2020 10/07/2020 $ 1,000, Ksh 80,000 View
80 CUSTOMER EXPERIENCE MANAGEMENT STRATEGIES 5 Days 06/07/2020 10/07/2020 $ 1,000, Ksh 80,000 View
81 PERFORMANCE AUDITING 5 Days 06/07/2020 10/07/2020 $ 1,000, Ksh 80,000 View
82 GENDER DIVERSITY AT THE WORK PLACE 3 Days 06/07/2020 08/07/2020 $ 500, Ksh 40,000 View
83 PERSPECTIVES ON COST ACCOUNTING FOR PUBLIC SECTOR 5 Days 06/07/2020 10/07/2020 $ 1,000, Ksh 80,000 View
84 CUSTOMER RELATIONSHIP MANAGEMENT (CRM) BEST PRACTI 5 Days 06/07/2020 10/07/2020 $ 1,000, Ksh 80,000 View
85 THE ART OF HUMAN RESOURCE MANAGEMENT 5 Days 06/07/2020 10/07/2020 $ 1,000, Ksh 80,000 View
86 GRANT MANAGEMENT USING SUN ACCOUNTING SYSTEM 10 Days 06/07/2020 17/07/2020 $ 2,000, Ksh 160,000 View
87 CUSTOMER ACQUISITION & RETENTION STRATEGIES 5 Days 06/07/2020 10/07/2020 $ 1,000, Ksh 80,000 View
88 PREPARATION AND INTERPRETATION OF FINANCIAL STATEM 5 Days 06/07/2020 10/07/2020 $ 1,000, Ksh 80,000 View
89 CUSTOMER ACQUISITION & RETENTION STRATEGIES 5 Days 06/07/2020 10/07/2020 $ 1,000, Ksh 80,000 View
90 BUDGET EXECUTION AND MANAGING FISCAL SPACE 5 Days 06/07/2020 10/07/2020 $ 1,000, Ksh 80,000 View
91 CORPORATE AND EMPLOYEE BEST PRACTICES 5 Days 06/07/2020 10/07/2020 $ 1,000, Ksh 80,000 View
92 STRATEGIC VISION AND BUSINESS RISK MANAGEMENT STAT 10 Days 06/07/2020 17/07/2020 $ 2,000, Ksh 160,000 View
93 ADVANCED FINANCIAL MANAGEMENT 5 Days 06/07/2020 10/07/2020 $ 1,000, Ksh 80,000 View
94 EMPLOYEE RELATIONS 3 Days 06/07/2020 08/07/2020 $ 500, Ksh 40,000 View
95 EFFECTIVE DATA ANALYSIS TECHNIQUES: FOR POSITIVE B 5 Days 13/07/2020 17/07/2020 $ 1,000, Ksh 80,000 View
96 EMPLOYEE RELATIONS 3 Days 03/08/2020 05/08/2020 $ 500, Ksh 40,000 View
97 ASSET MANAGEMENT 5 Days 03/08/2020 07/08/2020 $ 1,000, Ksh 80,000 View
98 GENDER DIVERSITY AT THE WORK PLACE 3 Days 03/08/2020 05/08/2020 $ 500, Ksh 40,000 View
99 AUDITING OF DONOR FUNDED PROJECTS 5 Days 03/08/2020 07/08/2020 $ 1,000, Ksh 80,000 View
100 HUMAN RESOURCES DEVELOPMENT AND PERSONNEL MANAGEME 5 Days 03/08/2020 07/08/2020 $ 1,000, Ksh 80,000 View
101 CASH FLOW FORECASTING AND LIQUIDITY RISK MANAGEMEN 5 Days 03/08/2020 07/08/2020 $ 1,000, Ksh 80,000 View
102 PROJECT FINANCIAL ANALYSIS AND MANAGEMENT 5 Days 03/08/2020 07/08/2020 $ 1,000, Ksh 80,000 View
103 CONCEPTS OF CORPORATE GOVERNANCE, BUSINESS ETHICS 5 Days 03/08/2020 07/08/2020 $ 1,000, Ksh 80,000 View
104 PROCUREMENT AND SUPPLY CHAIN MANAGEMENT 5 Days 03/08/2020 07/08/2020 $ 1,000, Ksh 80,000 View
105 RECORDS MANAGEMENT 10 Days 03/08/2020 14/08/2020 $ 2,000, Ksh 160,000 View
106 ADVANCED PURCHASING AND COST SAVING TECHNIQUES 5 Days 03/08/2020 07/08/2020 $ 1,000, Ksh 80,000 View
107 SHIPPING AND LOGISTICS 5 Days 03/08/2020 07/08/2020 $ 1,000, Ksh 80,000 View
108 CONTRACT MANAGEMENT IN OIL & GAS 5 Days 03/08/2020 07/08/2020 $ 1,000, Ksh 80,000 View
109 BEST PRACTICES IN MANAGING INVENTORY & STOCK CONTR 5 Days 03/08/2020 07/08/2020 $ 1,000, Ksh 80,000 View
110 EFFECTIVE WAREHOUSE & STORES MANAGEMENT 5 Days 03/08/2020 07/08/2020 $ 1,000, Ksh 80,000 View
111 PROFESSIONAL SKILLS ENHANCEMENT FOR ADMINISTRATORS 10 Days 03/08/2020 12/08/2020 $ 2,000, Ksh 160,000 View
112 ESSENTIAL INTERVIEWING SKILLS 3 Days 03/08/2020 05/08/2020 $ 500, Ksh 40,000 View
113 MICROSOFT EXCEL FOR HUMAN RESOURSE PROFESSIONAL 3 Days 03/08/2020 05/08/2020 $ 500, Ksh 40,000 View
114 LEADING FOR ORGANIZATIONAL IMPACT 5 Days 03/08/2020 07/08/2020 $ 1,000, Ksh 80,000 View
115 INTERPERSONAL SKILLS FOR THE HR PROFFESSIONAL 5 Days 03/08/2020 07/08/2020 $ 1,000, Ksh 80,000 View
116 BASIC HUMAN RESOURCE MANAGEMENT 5 Days 03/08/2020 07/08/2020 $ 1,000, Ksh 80,000 View
117 INTERNATIONAL FINANCIAL REPORTING STANDARDS 5 Days 03/08/2020 07/08/2020 $ 1,000, Ksh 80,000 View
118 FINANCIAL MARKETS AND INSTITUTIONS COURSE 5 Days 03/08/2020 07/08/2020 $ 1,000, Ksh 80,000 View
119 FINANCIAL SKILLS DEVELOPMENT 5 Days 03/08/2020 07/08/2020 $ 1,000, Ksh 80,000 View
120 INTERNATIONAL PUBLIC SECTOR ACCOUNTING STANDARD 5 Days 03/08/2020 07/08/2020 $ 1,000, Ksh 80,000 View
121 FINANCIAL MANAGEMENT USING PASTEL 5 Days 03/08/2020 07/08/2020 $ 1,000, Ksh 80,000 View
122 FORENSIC ACCOUNTING IN THE PUBLIC SECTOR 5 Days 03/08/2020 07/08/2020 $ 1,000, Ksh 80,000 View
123 CORPORATE AND EMPLOYEE BEST PRACTICES 5 Days 03/08/2020 07/08/2020 $ 1,000, Ksh 80,000 View
124 ENTERPRISE RISK MANAGEMENT 5 Days 03/08/2020 07/08/2020 $ 1,000, Ksh 80,000 View
125 COMPETENCY BASED RECRUITMENT 3 Days 03/08/2020 05/08/2020 $ 5,000, Ksh 40,000 View
126 BASICS OF FINANCIAL MODELLING USING MS EXCEL 10 Days 03/08/2020 14/08/2020 $ 2,000, Ksh 160,000 View
127 CORPORATE AND EMPLOYEE BEST PRACTICES 5 Days 03/08/2020 07/08/2020 $ 1,000, Ksh 80,000 View
128 CUSTOMER EXPERIENCE MANAGEMENT STRATEGIES 5 Days 03/08/2020 07/08/2020 $ 1,000, Ksh 80,000 View
129 PERFORMANCE AUDITING 5 Days 03/08/2020 07/08/2020 $ 1,000, Ksh 80,000 View
130 GENDER DIVERSITY AT THE WORK PLACE 3 Days 03/08/2020 05/08/2020 $ 500, Ksh 40,000 View
131 PERSPECTIVES ON COST ACCOUNTING FOR PUBLIC SECTOR 5 Days 03/08/2020 07/08/2020 $ 1,000, Ksh 80,000 View
132 CUSTOMER RELATIONSHIP MANAGEMENT (CRM) BEST PRACTI 5 Days 03/08/2020 07/08/2020 $ 1,000, Ksh 80,000 View
133 THE ART OF HUMAN RESOURCE MANAGEMENT 5 Days 03/08/2020 07/08/2020 $ 1,000, Ksh 80,000 View
134 GRANT MANAGEMENT USING SUN ACCOUNTING SYSTEM 10 Days 03/08/2020 14/08/2020 $ 2,000, Ksh 160,000 View
135 PREPARATION AND INTERPRETATION OF FINANCIAL STATEM 5 Days 03/08/2020 07/08/2020 $ 1,000, Ksh 80,000 View
136 CUSTOMER ACQUISITION & RETENTION STRATEGIES 5 Days 03/08/2020 07/08/2020 $ 1,000, Ksh 80,000 View
137 BUDGET EXECUTION AND MANAGING FISCAL SPACE 5 Days 03/08/2020 07/08/2020 $ 1,000, Ksh 80,000 View
138 CORPORATE AND EMPLOYEE BEST PRACTICES 5 Days 03/08/2020 07/08/2020 $ 1,000, Ksh 80,000 View
139 STRATEGIC VISION AND BUSINESS RISK MANAGEMENT STAT 10 Days 03/08/2020 14/08/2020 $ 2,000, Ksh 160,000 View
140 ADVANCED FINANCIAL MANAGEMENT 5 Days 03/08/2020 07/08/2020 $ 1,000, Ksh 80,000 View
141 EFFECTIVE DATA ANALYSIS TECHNIQUES: FOR POSITIVE B 5 Days 10/08/2020 14/08/2020 $ 1,000, Ksh 80,000 View
142 EMPLOYEE RELATIONS 3 Days 07/09/2020 09/09/2020 $ 500, Ksh 40,000 View
143 ASSET MANAGEMENT 5 Days 07/09/2020 11/09/2020 $ 1,000, Ksh 80,000 View
144 GENDER DIVERSITY AT THE WORK PLACE 3 Days 07/09/2020 09/09/2020 $ 500, Ksh 40,000 View
145 AUDITING OF DONOR FUNDED PROJECTS 5 Days 07/09/2020 11/09/2020 $ 1,000, Ksh 80,000 View
146 HUMAN RESOURCES DEVELOPMENT AND PERSONNEL MANAGEME 5 Days 07/09/2020 11/09/2020 $ 1,000, Ksh 80,000 View
147 CASH FLOW FORECASTING AND LIQUIDITY RISK MANAGEMEN 5 Days 07/09/2020 11/09/2020 $ 1,000, Ksh 80,000 View
148 PROJECT FINANCIAL ANALYSIS AND MANAGEMENT 5 Days 07/09/2020 11/09/2020 $ 1,000, Ksh 80,000 View
149 CONCEPTS OF CORPORATE GOVERNANCE, BUSINESS ETHICS 5 Days 07/09/2020 11/09/2020 $ 1,000, Ksh 80,000 View
150 PROCUREMENT AND SUPPLY CHAIN MANAGEMENT 5 Days 07/09/2020 11/09/2020 $ 1,000, Ksh 80,000 View
151 RECORDS MANAGEMENT 10 Days 07/09/2020 18/09/2020 $ 2,000, Ksh 160,000 View
152 ADVANCED PURCHASING AND COST SAVING TECHNIQUES 5 Days 07/09/2020 11/09/2020 $ 1,000, Ksh 80,000 View
153 SHIPPING AND LOGISTICS 5 Days 07/09/2020 11/09/2020 $ 1,000, Ksh 80,000 View
154 CONTRACT MANAGEMENT IN OIL & GAS 5 Days 07/09/2020 11/09/2020 $ 1,000, Ksh 80,000 View
155 BEST PRACTICES IN MANAGING INVENTORY & STOCK CONTR 5 Days 07/09/2020 11/09/2020 $ 1,000, Ksh 80,000 View
156 EFFECTIVE WAREHOUSE & STORES MANAGEMENT 5 Days 07/09/2020 11/09/2020 $ 1,000, Ksh 80,000 View
157 PROFESSIONAL SKILLS ENHANCEMENT FOR ADMINISTRATORS 10 Days 07/09/2020 16/09/2020 $ 2,000, Ksh 160,000 View
158 ESSENTIAL INTERVIEWING SKILLS 3 Days 07/09/2020 09/09/2020 $ 500, Ksh 40,000 View
159 MICROSOFT EXCEL FOR HUMAN RESOURSE PROFESSIONAL 3 Days 07/09/2020 09/09/2020 $ 500, Ksh 40,000 View
160 LEADING FOR ORGANIZATIONAL IMPACT 5 Days 07/09/2020 11/09/2020 $ 1,000, Ksh 80,000 View
161 INTERPERSONAL SKILLS FOR THE HR PROFFESSIONAL 5 Days 07/09/2020 11/09/2020 $ 1,000, Ksh 80,000 View
162 BASIC HUMAN RESOURCE MANAGEMENT 5 Days 07/09/2020 11/09/2020 $ 1,000, Ksh 80,000 View
163 INTERNATIONAL FINANCIAL REPORTING STANDARDS 5 Days 07/09/2020 11/09/2020 $ 1,000, Ksh 80,000 View
164 FINANCIAL MARKETS AND INSTITUTIONS COURSE 5 Days 07/09/2020 11/09/2020 $ 1,000, Ksh 80,000 View
165 FINANCIAL SKILLS DEVELOPMENT 5 Days 07/09/2020 11/09/2020 $ 1,000, Ksh 80,000 View
166 INTERNATIONAL PUBLIC SECTOR ACCOUNTING STANDARD 5 Days 07/09/2020 11/09/2020 $ 1,000, Ksh 80,000 View
167 EFFECTIVE DATA ANALYSIS TECHNIQUES: FOR POSITIVE B 5 Days 07/09/2020 11/09/2020 $ 1,000, Ksh 80,000 View
168 FINANCIAL MANAGEMENT USING PASTEL 5 Days 07/09/2020 11/09/2020 $ 1,000, Ksh 80,000 View
169 FORENSIC ACCOUNTING IN THE PUBLIC SECTOR 5 Days 07/09/2020 11/09/2020 $ 1,000, Ksh 80,000 View
170 CORPORATE AND EMPLOYEE BEST PRACTICES 5 Days 07/09/2020 11/09/2020 $ 1,000, Ksh 80,000 View
171 ENTERPRISE RISK MANAGEMENT 5 Days 07/09/2020 11/09/2020 $ 1,000, Ksh 80,000 View
172 COMPETENCY BASED RECRUITMENT 3 Days 07/09/2020 09/09/2020 $ 5,000, Ksh 40,000 View
173 BASICS OF FINANCIAL MODELLING USING MS EXCEL 10 Days 07/09/2020 18/09/2020 $ 2,000, Ksh 160,000 View
174 CORPORATE AND EMPLOYEE BEST PRACTICES 5 Days 07/09/2020 11/09/2020 $ 1,000, Ksh 80,000 View
175 CUSTOMER EXPERIENCE MANAGEMENT STRATEGIES 5 Days 07/09/2020 11/09/2020 $ 1,000, Ksh 80,000 View
176 PERFORMANCE AUDITING 5 Days 07/09/2020 11/09/2020 $ 1,000, Ksh 80,000 View
177 GENDER DIVERSITY AT THE WORK PLACE 3 Days 07/09/2020 09/09/2020 $ 500, Ksh 40,000 View
178 PERSPECTIVES ON COST ACCOUNTING FOR PUBLIC SECTOR 5 Days 07/09/2020 11/09/2020 $ 1,000, Ksh 80,000 View
179 CUSTOMER RELATIONSHIP MANAGEMENT (CRM) BEST PRACTI 5 Days 07/09/2020 11/09/2020 $ 1,000, Ksh 80,000 View
180 THE ART OF HUMAN RESOURCE MANAGEMENT 5 Days 07/09/2020 11/09/2020 $ 1,000, Ksh 80,000 View
181 GRANT MANAGEMENT USING SUN ACCOUNTING SYSTEM 10 Days 07/09/2020 18/09/2020 $ 2,000, Ksh 160,000 View
182 PREPARATION AND INTERPRETATION OF FINANCIAL STATEM 5 Days 07/09/2020 11/09/2020 $ 1,000, Ksh 80,000 View
183 CUSTOMER ACQUISITION & RETENTION STRATEGIES 5 Days 07/09/2020 11/09/2020 $ 1,000, Ksh 80,000 View
184 BUDGET EXECUTION AND MANAGING FISCAL SPACE 5 Days 07/09/2020 11/09/2020 $ 1,000, Ksh 80,000 View
185 CORPORATE AND EMPLOYEE BEST PRACTICES 5 Days 07/09/2020 11/09/2020 $ 1,000, Ksh 80,000 View
186 STRATEGIC VISION AND BUSINESS RISK MANAGEMENT STAT 10 Days 07/09/2020 18/09/2020 $ 2,000, Ksh 160,000 View
187 ADVANCED FINANCIAL MANAGEMENT 5 Days 07/09/2020 11/09/2020 $ 1,000, Ksh 80,000 View
188 EMPLOYEE RELATIONS 3 Days 05/10/2020 07/10/2020 $ 500, Ksh 40,000 View
189 ASSET MANAGEMENT 5 Days 05/10/2020 09/10/2020 $ 1,000, Ksh 80,000 View
190 GENDER DIVERSITY AT THE WORK PLACE 3 Days 05/10/2020 07/10/2020 $ 500, Ksh 40,000 View
191 AUDITING OF DONOR FUNDED PROJECTS 5 Days 05/10/2020 09/10/2020 $ 1,000, Ksh 80,000 View
192 HUMAN RESOURCES DEVELOPMENT AND PERSONNEL MANAGEME 5 Days 05/10/2020 09/10/2020 $ 1,000, Ksh 80,000 View
193 CASH FLOW FORECASTING AND LIQUIDITY RISK MANAGEMEN 5 Days 05/10/2020 09/10/2020 $ 1,000, Ksh 80,000 View
194 PROJECT FINANCIAL ANALYSIS AND MANAGEMENT 5 Days 05/10/2020 09/10/2020 $ 1,000, Ksh 80,000 View
195 CONCEPTS OF CORPORATE GOVERNANCE, BUSINESS ETHICS 5 Days 05/10/2020 09/10/2020 $ 1,000, Ksh 80,000 View
196 PROCUREMENT AND SUPPLY CHAIN MANAGEMENT 5 Days 05/10/2020 09/10/2020 $ 1,000, Ksh 80,000 View
197 RECORDS MANAGEMENT 10 Days 05/10/2020 16/10/2020 $ 2,000, Ksh 160,000 View
198 ADVANCED PURCHASING AND COST SAVING TECHNIQUES 5 Days 05/10/2020 09/10/2020 $ 1,000, Ksh 80,000 View
199 SHIPPING AND LOGISTICS 5 Days 05/10/2020 09/10/2020 $ 1,000, Ksh 80,000 View
200 CONTRACT MANAGEMENT IN OIL & GAS 5 Days 05/10/2020 09/10/2020 $ 1,000, Ksh 80,000 View
201 BEST PRACTICES IN MANAGING INVENTORY & STOCK CONTR 5 Days 05/10/2020 09/10/2020 $ 1,000, Ksh 80,000 View
202 EFFECTIVE WAREHOUSE & STORES MANAGEMENT 5 Days 05/10/2020 09/10/2020 $ 1,000, Ksh 80,000 View
203 PROFESSIONAL SKILLS ENHANCEMENT FOR ADMINISTRATORS 10 Days 05/10/2020 14/10/2020 $ 2,000, Ksh 160,000 View
204 ESSENTIAL INTERVIEWING SKILLS 3 Days 05/10/2020 07/10/2020 $ 500, Ksh 40,000 View
205 MICROSOFT EXCEL FOR HUMAN RESOURSE PROFESSIONAL 3 Days 05/10/2020 07/10/2020 $ 500, Ksh 40,000 View
206 LEADING FOR ORGANIZATIONAL IMPACT 5 Days 05/10/2020 09/10/2020 $ 1,000, Ksh 80,000 View
207 INTERPERSONAL SKILLS FOR THE HR PROFFESSIONAL 5 Days 05/10/2020 09/10/2020 $ 1,000, Ksh 80,000 View
208 BASIC HUMAN RESOURCE MANAGEMENT 5 Days 05/10/2020 09/10/2020 $ 1,000, Ksh 80,000 View
209 INTERNATIONAL FINANCIAL REPORTING STANDARDS 5 Days 05/10/2020 09/10/2020 $ 1,000, Ksh 80,000 View
210 FINANCIAL MARKETS AND INSTITUTIONS COURSE 5 Days 05/10/2020 09/10/2020 $ 1,000, Ksh 80,000 View
211 FINANCIAL SKILLS DEVELOPMENT 5 Days 05/10/2020 09/10/2020 $ 1,000, Ksh 80,000 View
212 INTERNATIONAL PUBLIC SECTOR ACCOUNTING STANDARD 5 Days 05/10/2020 09/10/2020 $ 1,000, Ksh 80,000 View
213 EFFECTIVE DATA ANALYSIS TECHNIQUES: FOR POSITIVE B 5 Days 05/10/2020 09/10/2020 $ 1,000, Ksh 80,000 View
214 FINANCIAL MANAGEMENT USING PASTEL 5 Days 05/10/2020 09/10/2020 $ 1,000, Ksh 80,000 View
215 FORENSIC ACCOUNTING IN THE PUBLIC SECTOR 5 Days 05/10/2020 09/10/2020 $ 1,000, Ksh 80,000 View
216 CORPORATE AND EMPLOYEE BEST PRACTICES 5 Days 05/10/2020 09/10/2020 $ 1,000, Ksh 80,000 View
217 ENTERPRISE RISK MANAGEMENT 5 Days 05/10/2020 09/10/2020 $ 1,000, Ksh 80,000 View
218 COMPETENCY BASED RECRUITMENT 3 Days 05/10/2020 07/10/2020 $ 5,000, Ksh 40,000 View
219 BASICS OF FINANCIAL MODELLING USING MS EXCEL 10 Days 05/10/2020 16/10/2020 $ 2,000, Ksh 160,000 View
220 CORPORATE AND EMPLOYEE BEST PRACTICES 5 Days 05/10/2020 09/10/2020 $ 1,000, Ksh 80,000 View
221 CUSTOMER EXPERIENCE MANAGEMENT STRATEGIES 5 Days 05/10/2020 09/10/2020 $ 1,000, Ksh 80,000 View
222 PERFORMANCE AUDITING 5 Days 05/10/2020 09/10/2020 $ 1,000, Ksh 80,000 View
223 GENDER DIVERSITY AT THE WORK PLACE 3 Days 05/10/2020 07/10/2020 $ 500, Ksh 40,000 View
224 PERSPECTIVES ON COST ACCOUNTING FOR PUBLIC SECTOR 5 Days 05/10/2020 09/10/2020 $ 1,000, Ksh 80,000 View
225 CUSTOMER RELATIONSHIP MANAGEMENT (CRM) BEST PRACTI 5 Days 05/10/2020 09/10/2020 $ 1,000, Ksh 80,000 View
226 THE ART OF HUMAN RESOURCE MANAGEMENT 5 Days 05/10/2020 09/10/2020 $ 1,000, Ksh 80,000 View
227 GRANT MANAGEMENT USING SUN ACCOUNTING SYSTEM 10 Days 05/10/2020 16/10/2020 $ 2,000, Ksh 160,000 View
228 PREPARATION AND INTERPRETATION OF FINANCIAL STATEM 5 Days 05/10/2020 09/10/2020 $ 1,000, Ksh 80,000 View
229 CUSTOMER ACQUISITION & RETENTION STRATEGIES 5 Days 05/10/2020 09/10/2020 $ 1,000, Ksh 80,000 View
230 BUDGET EXECUTION AND MANAGING FISCAL SPACE 5 Days 05/10/2020 09/10/2020 $ 1,000, Ksh 80,000 View
231 CORPORATE AND EMPLOYEE BEST PRACTICES 5 Days 05/10/2020 09/10/2020 $ 1,000, Ksh 80,000 View
232 STRATEGIC VISION AND BUSINESS RISK MANAGEMENT STAT 10 Days 05/10/2020 16/10/2020 $ 2,000, Ksh 160,000 View
233 ADVANCED FINANCIAL MANAGEMENT 5 Days 05/10/2020 09/10/2020 $ 1,000, Ksh 80,000 View
234 EMPLOYEE RELATIONS 3 Days 02/11/2020 04/11/2020 $ 500, Ksh 40,000 View
235 ASSET MANAGEMENT 5 Days 02/11/2020 06/11/2020 $ 1,000, Ksh 80,000 View
236 GENDER DIVERSITY AT THE WORK PLACE 3 Days 02/11/2020 04/11/2020 $ 500, Ksh 40,000 View
237 AUDITING OF DONOR FUNDED PROJECTS 5 Days 02/11/2020 06/11/2020 $ 1,000, Ksh 80,000 View
238 HUMAN RESOURCES DEVELOPMENT AND PERSONNEL MANAGEME 5 Days 02/11/2020 06/11/2020 $ 1,000, Ksh 80,000 View
239 CASH FLOW FORECASTING AND LIQUIDITY RISK MANAGEMEN 5 Days 02/11/2020 06/11/2020 $ 1,000, Ksh 80,000 View
240 PROJECT FINANCIAL ANALYSIS AND MANAGEMENT 5 Days 02/11/2020 06/11/2020 $ 1,000, Ksh 80,000 View
241 CONCEPTS OF CORPORATE GOVERNANCE, BUSINESS ETHICS 5 Days 02/11/2020 06/11/2020 $ 1,000, Ksh 80,000 View
242 PROCUREMENT AND SUPPLY CHAIN MANAGEMENT 5 Days 02/11/2020 06/11/2020 $ 1,000, Ksh 80,000 View
243 RECORDS MANAGEMENT 10 Days 02/11/2020 13/11/2020 $ 2,000, Ksh 160,000 View
244 ADVANCED PURCHASING AND COST SAVING TECHNIQUES 5 Days 02/11/2020 06/11/2020 $ 1,000, Ksh 80,000 View
245 SHIPPING AND LOGISTICS 5 Days 02/11/2020 06/11/2020 $ 1,000, Ksh 80,000 View
246 CONTRACT MANAGEMENT IN OIL & GAS 5 Days 02/11/2020 06/11/2020 $ 1,000, Ksh 80,000 View
247 BEST PRACTICES IN MANAGING INVENTORY & STOCK CONTR 5 Days 02/11/2020 06/11/2020 $ 1,000, Ksh 80,000 View
248 EFFECTIVE WAREHOUSE & STORES MANAGEMENT 5 Days 02/11/2020 06/11/2020 $ 1,000, Ksh 80,000 View
249 PROFESSIONAL SKILLS ENHANCEMENT FOR ADMINISTRATORS 10 Days 02/11/2020 11/11/2020 $ 2,000, Ksh 160,000 View
250 ESSENTIAL INTERVIEWING SKILLS 3 Days 02/11/2020 04/11/2020 $ 500, Ksh 40,000 View
251 MICROSOFT EXCEL FOR HUMAN RESOURSE PROFESSIONAL 3 Days 02/11/2020 04/11/2020 $ 500, Ksh 40,000 View
252 LEADING FOR ORGANIZATIONAL IMPACT 5 Days 02/11/2020 06/11/2020 $ 1,000, Ksh 80,000 View
253 INTERPERSONAL SKILLS FOR THE HR PROFFESSIONAL 5 Days 02/11/2020 06/11/2020 $ 1,000, Ksh 80,000 View
254 BASIC HUMAN RESOURCE MANAGEMENT 5 Days 02/11/2020 06/11/2020 $ 1,000, Ksh 80,000 View
255 INTERNATIONAL FINANCIAL REPORTING STANDARDS 5 Days 02/11/2020 06/11/2020 $ 1,000, Ksh 80,000 View
256 FINANCIAL MARKETS AND INSTITUTIONS COURSE 5 Days 02/11/2020 06/11/2020 $ 1,000, Ksh 80,000 View
257 FINANCIAL SKILLS DEVELOPMENT 5 Days 02/11/2020 06/11/2020 $ 1,000, Ksh 80,000 View
258 INTERNATIONAL PUBLIC SECTOR ACCOUNTING STANDARD 5 Days 02/11/2020 06/11/2020 $ 1,000, Ksh 80,000 View
259 FINANCIAL MANAGEMENT USING PASTEL 5 Days 02/11/2020 06/11/2020 $ 1,000, Ksh 80,000 View
260 FORENSIC ACCOUNTING IN THE PUBLIC SECTOR 5 Days 02/11/2020 06/11/2020 $ 1,000, Ksh 80,000 View
261 ENTERPRISE RISK MANAGEMENT 5 Days 02/11/2020 06/11/2020 $ 1,000, Ksh 80,000 View
262 COMPETENCY BASED RECRUITMENT 3 Days 02/11/2020 04/11/2020 $ 5,000, Ksh 40,000 View
263 BASICS OF FINANCIAL MODELLING USING MS EXCEL 10 Days 02/11/2020 13/11/2020 $ 2,000, Ksh 160,000 View
264 CORPORATE AND EMPLOYEE BEST PRACTICES 5 Days 02/11/2020 06/11/2020 $ 1,000, Ksh 80,000 View
265 CUSTOMER EXPERIENCE MANAGEMENT STRATEGIES 5 Days 02/11/2020 06/11/2020 $ 1,000, Ksh 80,000 View
266 PERFORMANCE AUDITING 5 Days 02/11/2020 06/11/2020 $ 1,000, Ksh 80,000 View
267 GENDER DIVERSITY AT THE WORK PLACE 3 Days 02/11/2020 04/11/2020 $ 500, Ksh 40,000 View
268 PERSPECTIVES ON COST ACCOUNTING FOR PUBLIC SECTOR 5 Days 02/11/2020 06/11/2020 $ 1,000, Ksh 80,000 View
269 CUSTOMER RELATIONSHIP MANAGEMENT (CRM) BEST PRACTI 5 Days 02/11/2020 06/11/2020 $ 1,000, Ksh 80,000 View
270 GRANT MANAGEMENT USING SUN ACCOUNTING SYSTEM 10 Days 02/11/2020 13/11/2020 $ 2,000, Ksh 160,000 View
271 THE ART OF HUMAN RESOURCE MANAGEMENT 5 Days 02/11/2020 06/11/2020 $ 1,000, Ksh 80,000 View
272 PREPARATION AND INTERPRETATION OF FINANCIAL STATEM 5 Days 02/11/2020 06/11/2020 $ 1,000, Ksh 80,000 View
273 CUSTOMER ACQUISITION & RETENTION STRATEGIES 5 Days 02/11/2020 06/11/2020 $ 1,000, Ksh 80,000 View
274 BUDGET EXECUTION AND MANAGING FISCAL SPACE 5 Days 02/11/2020 06/11/2020 $ 1,000, Ksh 80,000 View
275 CORPORATE AND EMPLOYEE BEST PRACTICES 5 Days 02/11/2020 06/11/2020 $ 1,000, Ksh 80,000 View
276 STRATEGIC VISION AND BUSINESS RISK MANAGEMENT STAT 10 Days 02/11/2020 13/11/2020 $ 2,000, Ksh 160,000 View
277 ADVANCED FINANCIAL MANAGEMENT 5 Days 02/11/2020 06/11/2020 $ 1,000, Ksh 80,000 View
278 EFFECTIVE DATA ANALYSIS TECHNIQUES: FOR POSITIVE B 5 Days 09/11/2020 13/11/2020 $ 1,000, Ksh 80,000 View
279 CORPORATE AND EMPLOYEE BEST PRACTICES 5 Days 09/11/2020 13/11/2020 $ 1,000, Ksh 80,000 View
280 ADVANCED FINANCIAL MANAGEMENT 5 Days 07/12/2020 11/12/2020 $ 1,000, Ksh 80,000 View
281 EMPLOYEE RELATIONS 3 Days 07/12/2020 09/12/2020 $ 500, Ksh 40,000 View
282 ASSET MANAGEMENT 5 Days 07/12/2020 11/12/2020 $ 1,000, Ksh 80,000 View
283 GENDER DIVERSITY AT THE WORK PLACE 3 Days 07/12/2020 09/12/2020 $ 500, Ksh 40,000 View
284 AUDITING OF DONOR FUNDED PROJECTS 5 Days 07/12/2020 11/12/2020 $ 1,000, Ksh 80,000 View
285 HUMAN RESOURCES DEVELOPMENT AND PERSONNEL MANAGEME 5 Days 07/12/2020 11/12/2020 $ 1,000, Ksh 80,000 View
286 CASH FLOW FORECASTING AND LIQUIDITY RISK MANAGEMEN 5 Days 07/12/2020 11/12/2020 $ 1,000, Ksh 80,000 View
287 PROJECT FINANCIAL ANALYSIS AND MANAGEMENT 5 Days 07/12/2020 11/12/2020 $ 1,000, Ksh 80,000 View
288 CONCEPTS OF CORPORATE GOVERNANCE, BUSINESS ETHICS 5 Days 07/12/2020 11/12/2020 $ 1,000, Ksh 80,000 View
289 PROCUREMENT AND SUPPLY CHAIN MANAGEMENT 5 Days 07/12/2020 11/12/2020 $ 1,000, Ksh 80,000 View
290 RECORDS MANAGEMENT 10 Days 07/12/2020 18/12/2020 $ 2,000, Ksh 160,000 View
291 ADVANCED PURCHASING AND COST SAVING TECHNIQUES 5 Days 07/12/2020 11/12/2020 $ 1,000, Ksh 80,000 View
292 SHIPPING AND LOGISTICS 5 Days 07/12/2020 11/12/2020 $ 1,000, Ksh 80,000 View
293 CONTRACT MANAGEMENT IN OIL & GAS 5 Days 07/12/2020 11/12/2020 $ 1,000, Ksh 80,000 View
294 BEST PRACTICES IN MANAGING INVENTORY & STOCK CONTR 5 Days 07/12/2020 11/12/2020 $ 1,000, Ksh 80,000 View
295 EFFECTIVE WAREHOUSE & STORES MANAGEMENT 5 Days 07/12/2020 11/12/2020 $ 1,000, Ksh 80,000 View
296 ESSENTIAL INTERVIEWING SKILLS 3 Days 07/12/2020 09/12/2020 $ 500, Ksh 40,000 View
297 MICROSOFT EXCEL FOR HUMAN RESOURSE PROFESSIONAL 3 Days 07/12/2020 09/12/2020 $ 500, Ksh 40,000 View
298 LEADING FOR ORGANIZATIONAL IMPACT 5 Days 07/12/2020 11/12/2020 $ 1,000, Ksh 80,000 View
299 INTERPERSONAL SKILLS FOR THE HR PROFFESSIONAL 5 Days 07/12/2020 11/12/2020 $ 1,000, Ksh 80,000 View
300 BASIC HUMAN RESOURCE MANAGEMENT 5 Days 07/12/2020 11/12/2020 $ 1,000, Ksh 80,000 View
301 INTERNATIONAL FINANCIAL REPORTING STANDARDS 5 Days 07/12/2020 11/12/2020 $ 1,000, Ksh 80,000 View
302 FINANCIAL MARKETS AND INSTITUTIONS COURSE 5 Days 07/12/2020 11/12/2020 $ 1,000, Ksh 80,000 View
303 FINANCIAL SKILLS DEVELOPMENT 5 Days 07/12/2020 11/12/2020 $ 1,000, Ksh 80,000 View
304 INTERNATIONAL PUBLIC SECTOR ACCOUNTING STANDARD 5 Days 07/12/2020 11/12/2020 $ 1,000, Ksh 80,000 View
305 EFFECTIVE DATA ANALYSIS TECHNIQUES: FOR POSITIVE B 5 Days 07/12/2020 11/12/2020 $ 1,000, Ksh 80,000 View
306 FINANCIAL MANAGEMENT USING PASTEL 5 Days 07/12/2020 11/12/2020 $ 1,000, Ksh 80,000 View
307 FORENSIC ACCOUNTING IN THE PUBLIC SECTOR 5 Days 07/12/2020 11/12/2020 $ 1,000, Ksh 80,000 View
308 CORPORATE AND EMPLOYEE BEST PRACTICES 5 Days 07/12/2020 11/12/2020 $ 1,000, Ksh 80,000 View
309 ENTERPRISE RISK MANAGEMENT 5 Days 07/12/2020 11/12/2020 $ 1,000, Ksh 80,000 View
310 COMPETENCY BASED RECRUITMENT 3 Days 07/12/2020 09/12/2020 $ 5,000, Ksh 40,000 View
311 BASICS OF FINANCIAL MODELLING USING MS EXCEL 10 Days 07/12/2020 18/12/2020 $ 2,000, Ksh 160,000 View
312 CORPORATE AND EMPLOYEE BEST PRACTICES 5 Days 07/12/2020 11/12/2020 $ 1,000, Ksh 80,000 View
313 CUSTOMER EXPERIENCE MANAGEMENT STRATEGIES 5 Days 07/12/2020 11/12/2020 $ 1,000, Ksh 80,000 View
314 PERFORMANCE AUDITING 5 Days 07/12/2020 11/12/2020 $ 1,000, Ksh 80,000 View
315 GENDER DIVERSITY AT THE WORK PLACE 3 Days 07/12/2020 09/12/2020 $ 500, Ksh 40,000 View
316 PERSPECTIVES ON COST ACCOUNTING FOR PUBLIC SECTOR 5 Days 07/12/2020 11/12/2020 $ 1,000, Ksh 80,000 View
317 CUSTOMER RELATIONSHIP MANAGEMENT (CRM) BEST PRACTI 5 Days 07/12/2020 11/12/2020 $ 1,000, Ksh 80,000 View
318 GRANT MANAGEMENT USING SUN ACCOUNTING SYSTEM 10 Days 07/12/2020 18/12/2020 $ 2,000, Ksh 160,000 View
319 THE ART OF HUMAN RESOURCE MANAGEMENT 5 Days 07/12/2020 11/12/2020 $ 1,000, Ksh 80,000 View
320 PREPARATION AND INTERPRETATION OF FINANCIAL STATEM 5 Days 07/12/2020 11/12/2020 $ 1,000, Ksh 80,000 View
321 CUSTOMER ACQUISITION & RETENTION STRATEGIES 5 Days 07/12/2020 11/12/2020 $ 1,000, Ksh 80,000 View
322 BUDGET EXECUTION AND MANAGING FISCAL SPACE 5 Days 07/12/2020 11/12/2020 $ 1,000, Ksh 80,000 View
323 CORPORATE AND EMPLOYEE BEST PRACTICES 5 Days 07/12/2020 11/12/2020 $ 1,000, Ksh 80,000 View
324 STRATEGIC VISION AND BUSINESS RISK MANAGEMENT STAT 10 Days 07/12/2020 18/12/2020 $ 2,000, Ksh 160,000 View

Contact Details

Anniversary Towers 8th Flr, Nairobi
+254 715 310 685 | +254 732 543 623
info@afriextraining.org

Connect With Us

     

Afriex Training

We engage in empowering individuals, organizations, and societies through quality trainings.